Time;durP1;ratioP1;P1;durP2;ratioP2;P2;SDS_P1;SDS_P2;PMS_P1;PMS_P2;Temp;Humidity;BMP_temperature;BMP_pressure;BME280_temperature;BME280_humidity;BME280_pressure;Samples;Min_cycle;Max_cycle;Signal;HPM_P1;HPM_P2
2023/04/11 00:00:18;;;;;;;2.83;2.10;;;13.80;89.40;;;;;;5002435;28;20482;-67
2023/04/11 00:02:46;;;;;;;3.37;2.10;;;13.80;89.50;;;;;;4990561;28;20481;-66
2023/04/11 00:05:15;;;;;;;3.20;2.30;;;13.80;90.30;;;;;;4994384;28;20460;-66
2023/04/11 00:07:43;;;;;;;5.00;3.07;;;13.80;89.70;;;;;;4982532;28;20451;-66
2023/04/11 00:10:11;;;;;;;4.80;2.77;;;13.80;89.80;;;;;;4983821;28;20477;-66
2023/04/11 00:12:40;;;;;;;3.33;2.67;;;13.80;89.80;;;;;;4992637;28;20469;-65
2023/04/11 00:15:09;;;;;;;4.67;2.47;;;13.80;89.80;;;;;;4984804;28;20457;-64
2023/04/11 00:17:40;;;;;;;5.27;2.80;;;13.80;89.80;;;;;;4986238;28;20480;-65
2023/04/11 00:20:10;;;;;;;3.30;2.17;;;13.80;89.80;;;;;;4985190;28;20470;-65
2023/04/11 00:22:38;;;;;;;4.63;2.30;;;13.80;89.90;;;;;;4985187;28;20475;-65
2023/04/11 00:25:07;;;;;;;3.43;2.37;;;13.80;90.00;;;;;;4979898;28;21132;-64
2023/04/11 00:27:36;;;;;;;3.70;2.43;;;13.80;89.80;;;;;;4973588;28;20454;-65
2023/04/11 00:30:06;;;;;;;3.80;2.50;;;13.80;89.90;;;;;;4978577;28;20505;-66
2023/04/11 00:32:35;;;;;;;5.70;2.70;;;13.80;89.90;;;;;;4969452;28;20976;-65
2023/04/11 00:35:07;;;;;;;5.00;2.40;;;13.80;90.00;;;;;;4984459;28;20954;-65
2023/04/11 00:37:36;;;;;;;5.73;2.40;;;13.80;89.90;;;;;;5002715;28;20465;-65
2023/04/11 00:40:05;;;;;;;4.50;2.23;;;13.80;89.80;;;;;;4983152;28;20572;-66
2023/04/11 00:42:34;;;;;;;4.90;2.43;;;13.80;89.80;;;;;;4982770;28;20469;-66
2023/04/11 00:45:03;;;;;;;4.57;3.23;;;13.80;89.80;;;;;;4985212;28;20453;-66
2023/04/11 00:47:32;;;;;;;3.97;2.30;;;13.80;90.00;;;;;;4977164;28;20481;-66
2023/04/11 00:50:01;;;;;;;3.57;2.90;;;13.80;90.00;;;;;;4986316;28;20462;-65
2023/04/11 00:52:31;;;;;;;6.17;2.27;;;13.80;90.00;;;;;;4969749;28;21012;-66
2023/04/11 00:55:02;;;;;;;5.50;2.70;;;13.80;89.70;;;;;;4987077;28;20453;-65
2023/04/11 00:57:31;;;;;;;3.73;2.60;;;13.80;90.00;;;;;;4974222;28;20446;-66
2023/04/11 01:00:01;;;;;;;4.50;2.73;;;13.80;89.80;;;;;;4976351;28;20426;-66
2023/04/11 01:02:30;;;;;;;4.30;2.50;;;13.80;89.90;;;;;;4979371;28;20468;-64
2023/04/11 01:04:59;;;;;;;4.07;2.43;;;13.80;89.60;;;;;;4978593;28;20446;-65
2023/04/11 01:07:29;;;;;;;3.57;2.47;;;13.80;90.00;;;;;;4978014;28;20446;-66
2023/04/11 01:10:01;;;;;;;4.10;2.80;;;13.80;89.70;;;;;;4974030;28;20725;-65
2023/04/11 01:12:30;;;;;;;5.40;2.57;;;13.70;89.90;;;;;;4974578;28;20465;-65
2023/04/11 01:14:59;;;;;;;4.57;2.70;;;13.70;90.00;;;;;;4978481;28;20450;-66
2023/04/11 01:17:27;;;;;;;5.10;2.67;;;13.70;89.90;;;;;;4983151;28;20973;-65
2023/04/11 01:19:56;;;;;;;4.97;2.87;;;13.70;90.00;;;;;;4971468;28;20805;-65
2023/04/11 01:22:26;;;;;;;3.27;2.50;;;13.70;89.90;;;;;;4984140;28;20440;-65
2023/04/11 01:24:57;;;;;;;4.10;2.20;;;13.70;89.90;;;;;;4985924;28;20510;-65
2023/04/11 01:27:25;;;;;;;5.13;3.60;;;13.70;89.90;;;;;;5000515;28;20475;-65
2023/04/11 01:29:54;;;;;;;5.97;3.13;;;13.70;89.80;;;;;;4981697;28;20446;-65
2023/04/11 01:32:24;;;;;;;4.77;2.40;;;13.70;90.00;;;;;;4984443;28;20561;-66
2023/04/11 01:34:56;;;;;;;6.43;2.87;;;13.70;89.40;;;;;;4971482;28;20449;-65
2023/04/11 01:37:25;;;;;;;3.97;2.20;;;13.70;89.40;;;;;;4990087;28;20468;-65
2023/04/11 01:39:53;;;;;;;4.00;2.40;;;13.70;89.60;;;;;;4985546;28;20452;-66
2023/04/11 01:42:26;;;;;;;6.87;2.70;;;13.70;89.50;;;;;;4977333;28;20477;-66
2023/04/11 01:44:55;;;;;;;6.60;2.80;;;13.70;89.60;;;;;;4987750;28;20444;-65
2023/04/11 01:47:23;;;;;;;3.90;2.40;;;13.70;89.60;;;;;;4983361;28;20446;-67
2023/04/11 01:49:54;;;;;;;6.90;3.13;;;13.70;89.50;;;;;;4984754;28;20483;-66
2023/04/11 01:52:25;;;;;;;4.37;2.53;;;13.70;89.30;;;;;;4982587;28;20488;-67
2023/04/11 01:54:53;;;;;;;10.23;3.00;;;13.70;89.70;;;;;;4981602;28;20507;-66
2023/04/11 01:57:23;;;;;;;5.57;2.83;;;13.70;89.30;;;;;;4984774;28;20468;-66
2023/04/11 01:59:51;;;;;;;3.60;2.27;;;13.70;89.00;;;;;;4986282;28;20543;-64
2023/04/11 02:02:20;;;;;;;4.03;2.33;;;13.70;89.10;;;;;;4978158;28;20848;-66
2023/04/11 02:04:49;;;;;;;4.87;2.67;;;13.70;89.40;;;;;;4977336;28;20839;-65
2023/04/11 02:07:19;;;;;;;5.93;2.63;;;13.70;88.70;;;;;;4985325;28;20472;-66
2023/04/11 02:09:48;;;;;;;5.03;2.67;;;13.70;89.10;;;;;;4980434;28;20883;-67
2023/04/11 02:12:16;;;;;;;4.97;2.20;;;13.70;89.00;;;;;;4976762;28;20487;-66
2023/04/11 02:14:48;;;;;;;4.10;2.50;;;13.70;88.90;;;;;;4957407;28;20461;-66
2023/04/11 02:17:17;;;;;;;4.63;3.00;;;13.70;88.90;;;;;;4985097;28;20533;-65
2023/04/11 02:19:46;;;;;;;7.10;2.27;;;13.60;89.30;;;;;;4983457;28;20561;-66
2023/04/11 02:22:15;;;;;;;6.47;3.10;;;13.70;89.30;;;;;;4981109;28;20438;-66
2023/04/11 02:24:45;;;;;;;4.93;2.87;;;13.60;88.70;;;;;;4983997;28;20460;-66
2023/04/11 02:27:13;;;;;;;5.93;2.53;;;13.60;89.00;;;;;;4989360;28;20504;-66
2023/04/11 02:29:42;;;;;;;6.03;2.67;;;13.60;89.20;;;;;;4988488;28;20527;-66
2023/04/11 02:32:11;;;;;;;8.57;2.80;;;13.60;89.20;;;;;;4990857;28;20472;-64
2023/04/11 02:34:40;;;;;;;5.37;2.77;;;13.60;89.00;;;;;;4988638;28;20458;-65
2023/04/11 02:37:09;;;;;;;4.23;2.60;;;13.60;89.10;;;;;;5006809;28;20531;-66
2023/04/11 02:39:37;;;;;;;6.30;2.80;;;13.60;88.90;;;;;;4978627;28;20847;-66
2023/04/11 02:42:06;;;;;;;6.10;2.83;;;13.60;89.00;;;;;;4986132;28;20454;-64
2023/04/11 02:44:34;;;;;;;7.93;4.20;;;13.60;88.90;;;;;;4980803;28;20689;-65
2023/04/11 02:47:04;;;;;;;5.87;2.90;;;13.60;88.70;;;;;;4980840;28;20446;-66
2023/04/11 02:49:34;;;;;;;3.70;2.93;;;13.60;88.60;;;;;;4985885;28;20772;-66
2023/04/11 02:52:04;;;;;;;4.87;2.87;;;13.60;89.00;;;;;;4999092;28;20477;-66
2023/04/11 02:54:32;;;;;;;5.00;3.07;;;13.60;88.80;;;;;;4980438;28;20437;-65
2023/04/11 02:57:02;;;;;;;5.33;2.70;;;13.60;88.80;;;;;;4986309;28;20789;-66
2023/04/11 02:59:30;;;;;;;5.90;2.93;;;13.60;88.80;;;;;;4990570;28;20465;-67
2023/04/11 03:02:02;;;;;;;8.13;3.10;;;13.60;89.30;;;;;;4979795;28;20964;-67
2023/04/11 03:04:31;;;;;;;7.83;3.43;;;13.60;89.30;;;;;;4988924;28;20476;-64
2023/04/11 03:07:12;;;;;;;7.00;3.13;;;13.60;89.10;;;;;;4988067;28;20459;-66
2023/04/11 03:09:40;;;;;;;5.03;2.80;;;13.60;89.40;;;;;;4957632;28;20530;-66
2023/04/11 03:12:09;;;;;;;8.03;2.70;;;13.60;88.90;;;;;;4987807;28;21053;-65
2023/04/11 03:14:47;;;;;;;4.73;2.90;;;13.60;88.70;;;;;;4987886;28;20986;-67
2023/04/11 03:17:16;;;;;;;8.63;2.70;;;13.50;88.90;;;;;;4981868;28;20449;-65
2023/04/11 03:19:44;;;;;;;5.20;2.77;;;13.50;89.10;;;;;;5000646;28;20887;-66
2023/04/11 03:22:16;;;;;;;5.83;2.67;;;13.50;89.10;;;;;;4988204;28;20545;-66
2023/04/11 03:24:44;;;;;;;3.30;2.47;;;13.50;88.70;;;;;;4976262;28;20445;-66
2023/04/11 03:27:13;;;;;;;5.17;2.53;;;13.50;88.70;;;;;;4985784;28;20456;-66
2023/04/11 03:29:43;;;;;;;6.57;3.23;;;13.50;88.70;;;;;;4974347;28;20896;-67
2023/04/11 03:32:22;;;;;;;7.93;3.13;;;13.50;88.60;;;;;;4976301;28;21215;-65
2023/04/11 03:34:51;;;;;;;4.80;2.60;;;13.50;88.80;;;;;;4983680;28;20440;-65
2023/04/11 03:37:21;;;;;;;4.90;2.40;;;13.50;88.80;;;;;;4971653;28;21915;-65
2023/04/11 03:39:50;;;;;;;5.50;2.77;;;13.50;88.40;;;;;;4964972;28;20571;-66
2023/04/11 03:42:19;;;;;;;5.30;3.07;;;13.50;88.80;;;;;;4973423;28;20444;-66
2023/04/11 03:44:52;;;;;;;4.60;2.53;;;13.50;88.80;;;;;;4991560;28;20507;-64
2023/04/11 03:47:21;;;;;;;5.97;2.77;;;13.50;88.70;;;;;;4982159;28;20953;-66
2023/04/11 03:49:49;;;;;;;5.43;2.70;;;13.50;89.20;;;;;;4984853;28;20467;-65
2023/04/11 03:52:18;;;;;;;5.37;3.10;;;13.50;88.90;;;;;;4984768;28;20476;-66
2023/04/11 03:54:50;;;;;;;6.00;3.03;;;13.50;88.20;;;;;;4975626;28;20478;-67
2023/04/11 03:57:19;;;;;;;4.10;2.80;;;13.50;88.40;;;;;;4987156;28;20476;-67
2023/04/11 03:59:48;;;;;;;5.63;2.90;;;13.50;88.50;;;;;;4985376;28;20483;-67
2023/04/11 04:02:16;;;;;;;9.20;2.73;;;13.40;88.30;;;;;;4977473;28;20468;-65
2023/04/11 04:04:54;;;;;;;8.17;2.83;;;13.50;88.30;;;;;;4979188;28;20520;-67
2023/04/11 04:07:26;;;;;;;4.00;2.50;;;13.40;88.20;;;;;;4978192;28;20483;-68
2023/04/11 04:10:06;;;;;;;5.63;2.77;;;13.40;88.40;;;;;;4986983;28;20475;-67
2023/04/11 04:12:35;;;;;;;5.73;3.10;;;13.40;88.40;;;;;;4983837;28;21043;-66
2023/04/11 04:15:20;;;;;;;7.07;3.03;;;13.40;88.70;;;;;;4983408;28;20457;-65
2023/04/11 04:17:50;;;;;;;6.27;2.60;;;13.40;88.50;;;;;;4981300;28;20471;-67
2023/04/11 04:20:42;;;;;;;5.03;2.97;;;13.40;88.10;;;;;;4984429;28;20488;-67
2023/04/11 04:23:13;;;;;;;7.07;3.07;;;13.40;88.30;;;;;;4977795;28;20481;-66
2023/04/11 04:26:03;;;;;;;5.53;3.43;;;13.40;88.40;;;;;;4983728;28;20437;-67
2023/04/11 04:28:33;;;;;;;4.93;2.33;;;13.40;88.10;;;;;;4978762;28;20571;-67
2023/04/11 04:31:04;;;;;;;4.13;1.97;;;13.40;88.10;;;;;;5001847;28;20832;-67
2023/04/11 04:33:41;;;;;;;4.23;2.53;;;13.40;88.10;;;;;;4979732;28;20483;-68
2023/04/11 04:36:20;;;;;;;5.47;2.60;;;13.40;88.20;;;;;;4984259;28;20544;-67
2023/04/11 04:38:50;;;;;;;5.67;3.33;;;13.40;88.20;;;;;;4979917;28;20495;-66
2023/04/11 04:41:24;;;;;;;4.30;2.30;;;13.40;88.30;;;;;;4985530;28;20492;-66
2023/04/11 04:43:59;;;;;;;7.37;3.17;;;13.40;88.50;;;;;;4983262;28;21240;-67
2023/04/11 04:46:41;;;;;;;5.10;2.20;;;13.40;88.20;;;;;;4983871;28;20455;-67
2023/04/11 04:49:10;;;;;;;6.77;2.50;;;13.40;88.40;;;;;;4996177;28;20487;-68
2023/04/11 04:51:39;;;;;;;6.50;2.80;;;13.40;88.20;;;;;;4980572;28;20982;-66
2023/04/11 04:54:08;;;;;;;5.03;2.07;;;13.40;88.40;;;;;;4978875;28;20491;-66
2023/04/11 04:56:38;;;;;;;8.83;3.23;;;13.40;88.40;;;;;;4986122;28;20451;-67
2023/04/11 04:59:13;;;;;;;3.80;2.40;;;13.40;88.10;;;;;;4981926;28;20557;-67
2023/04/11 05:01:44;;;;;;;5.10;2.30;;;13.40;88.50;;;;;;4993015;28;20495;-68
2023/04/11 05:04:12;;;;;;;14.43;2.97;;;13.40;88.20;;;;;;4985531;28;20485;-66
2023/04/11 05:06:49;;;;;;;4.50;2.90;;;13.30;88.10;;;;;;4978932;28;20435;-66
2023/04/11 05:09:18;;;;;;;4.43;2.47;;;13.30;88.20;;;;;;4984086;28;20828;-66
2023/04/11 05:11:50;;;;;;;4.40;2.40;;;13.30;88.50;;;;;;4982371;28;20450;-66
2023/04/11 05:14:21;;;;;;;5.60;2.37;;;13.30;88.40;;;;;;4981931;28;20480;-66
2023/04/11 05:16:51;;;;;;;5.57;2.13;;;13.30;88.20;;;;;;5003890;28;20463;-65
2023/04/11 05:19:20;;;;;;;5.30;2.70;;;13.40;88.70;;;;;;4996325;28;20547;-65
2023/04/11 05:21:51;;;;;;;5.77;3.00;;;13.30;88.40;;;;;;4977943;28;20860;-66
2023/04/11 05:24:20;;;;;;;7.33;2.50;;;13.30;88.40;;;;;;4978338;28;20574;-67
2023/04/11 05:26:50;;;;;;;6.03;2.27;;;13.30;88.70;;;;;;4994699;28;20448;-66
2023/04/11 05:29:21;;;;;;;6.10;2.60;;;13.30;88.50;;;;;;4981115;28;20489;-66
2023/04/11 05:31:50;;;;;;;6.50;2.83;;;13.30;88.60;;;;;;4981590;28;20493;-72
2023/04/11 05:34:18;;;;;;;2.90;1.83;;;13.30;88.60;;;;;;4999696;28;21082;-73
2023/04/11 05:36:49;;;;;;;3.43;2.70;;;13.30;88.60;;;;;;4979879;28;20457;-72
2023/04/11 05:39:18;;;;;;;8.07;2.37;;;13.30;88.80;;;;;;4984414;28;21242;-72
2023/04/11 05:41:47;;;;;;;6.37;3.20;;;13.30;88.80;;;;;;4978909;28;20475;-72
2023/04/11 05:44:17;;;;;;;7.53;2.47;;;13.30;88.90;;;;;;4976781;28;20473;-73
2023/04/11 05:46:45;;;;;;;5.33;2.40;;;13.30;88.70;;;;;;4981439;28;20515;-72
2023/04/11 05:49:14;;;;;;;3.87;2.60;;;13.30;88.60;;;;;;4995391;28;21100;-72
2023/04/11 05:51:43;;;;;;;4.77;2.60;;;13.30;88.50;;;;;;4985034;28;20479;-73
2023/04/11 05:54:18;;;;;;;4.70;2.20;;;13.30;88.50;;;;;;4976146;28;20820;-72
2023/04/11 05:56:47;;;;;;;7.77;3.07;;;13.30;88.70;;;;;;4984420;28;20459;-73
2023/04/11 05:59:18;;;;;;;6.00;2.30;;;13.30;88.10;;;;;;4986897;28;21050;-72
2023/04/11 06:01:53;;;;;;;4.57;2.90;;;13.30;88.60;;;;;;4971838;28;20486;-72
2023/04/11 06:04:22;;;;;;;3.00;2.00;;;13.30;88.60;;;;;;4982119;28;20661;-73
2023/04/11 06:06:52;;;;;;;6.10;2.50;;;13.20;88.50;;;;;;4989052;28;20462;-72
2023/04/11 06:09:21;;;;;;;5.80;3.37;;;13.30;88.30;;;;;;4969267;28;20487;-73
2023/04/11 06:11:51;;;;;;;7.30;2.57;;;13.20;87.90;;;;;;4981058;28;20461;-67
2023/04/11 06:14:21;;;;;;;5.27;2.50;;;13.20;88.10;;;;;;4985757;28;20480;-66
2023/04/11 06:16:50;;;;;;;6.60;3.10;;;13.20;88.40;;;;;;4983282;28;20466;-65
2023/04/11 06:19:18;;;;;;;5.97;2.80;;;13.20;88.40;;;;;;4984982;28;20759;-66
2023/04/11 06:21:47;;;;;;;4.63;2.40;;;13.20;88.30;;;;;;4996357;28;20817;-68
2023/04/11 06:24:17;;;;;;;3.93;2.23;;;13.20;88.20;;;;;;4969816;28;20531;-67
2023/04/11 06:26:45;;;;;;;5.80;2.90;;;13.20;88.40;;;;;;4986770;28;20463;-67
2023/04/11 06:29:14;;;;;;;7.70;2.83;;;13.20;88.20;;;;;;4984153;28;20872;-66
2023/04/11 06:31:45;;;;;;;4.27;2.50;;;13.20;88.20;;;;;;4988763;28;20452;-66
2023/04/11 06:34:14;;;;;;;5.73;2.70;;;13.20;88.40;;;;;;4986961;28;20547;-66
2023/04/11 06:36:42;;;;;;;5.33;2.87;;;13.20;88.20;;;;;;4986288;28;20445;-66
2023/04/11 06:39:11;;;;;;;6.30;2.60;;;13.20;88.40;;;;;;4977697;28;20486;-65
2023/04/11 06:41:40;;;;;;;5.77;3.03;;;13.20;88.50;;;;;;4984492;28;20443;-67
2023/04/11 06:44:09;;;;;;;5.93;2.57;;;13.20;88.30;;;;;;4981184;28;20568;-66
2023/04/11 06:46:37;;;;;;;6.33;3.33;;;13.20;88.50;;;;;;4987762;28;20507;-67
2023/04/11 06:49:07;;;;;;;5.67;2.70;;;13.20;88.40;;;;;;4983532;28;20488;-66
2023/04/11 06:51:36;;;;;;;6.40;2.40;;;13.20;88.50;;;;;;4989373;28;21032;-66
2023/04/11 06:54:05;;;;;;;4.00;2.17;;;13.20;88.20;;;;;;4988587;28;20483;-67
2023/04/11 06:56:34;;;;;;;7.70;2.63;;;13.20;88.30;;;;;;4983001;28;20445;-66
2023/04/11 06:59:02;;;;;;;4.30;2.73;;;13.20;88.30;;;;;;4971927;28;20481;-65
2023/04/11 07:01:34;;;;;;;4.70;2.60;;;13.20;88.20;;;;;;4967477;28;20459;-67
2023/04/11 07:04:03;;;;;;;3.80;2.93;;;13.20;88.00;;;;;;4987839;28;20483;-66
2023/04/11 07:06:34;;;;;;;4.20;2.63;;;13.30;88.30;;;;;;4986581;28;20483;-66
2023/04/11 07:09:03;;;;;;;5.43;3.00;;;13.30;88.10;;;;;;4981854;28;20516;-66
2023/04/11 07:11:32;;;;;;;6.40;2.73;;;13.30;88.10;;;;;;4979406;28;20521;-65
2023/04/11 07:14:02;;;;;;;5.13;2.30;;;13.30;87.80;;;;;;4980260;28;20477;-66
2023/04/11 07:16:30;;;;;;;7.33;2.90;;;13.30;87.60;;;;;;4988426;28;20498;-66
2023/04/11 07:18:59;;;;;;;3.97;2.37;;;13.30;87.70;;;;;;4982608;28;20502;-66
2023/04/11 07:21:29;;;;;;;6.27;2.20;;;13.30;87.70;;;;;;4983872;28;20451;-65
2023/04/11 07:24:00;;;;;;;4.40;2.90;;;13.30;87.60;;;;;;4994424;28;20558;-66
2023/04/11 07:26:31;;;;;;;4.67;2.50;;;13.30;87.80;;;;;;4981282;28;20764;-66
2023/04/11 07:29:00;;;;;;;4.27;2.50;;;13.30;87.60;;;;;;4984705;28;21292;-68
2023/04/11 07:31:28;;;;;;;4.57;2.30;;;13.30;87.60;;;;;;4986242;28;20701;-68
2023/04/11 07:33:57;;;;;;;4.30;2.47;;;13.30;86.50;;;;;;4984423;28;20829;-66
2023/04/11 07:36:30;;;;;;;8.03;4.10;;;13.30;85.10;;;;;;4980092;28;20507;-66
2023/04/11 07:39:00;;;;;;;8.63;2.77;;;13.20;79.00;;;;;;4983707;28;20491;-65
2023/04/11 07:41:29;;;;;;;8.07;3.30;;;13.20;82.70;;;;;;4984243;28;21521;-65
2023/04/11 07:43:58;;;;;;;9.33;3.57;;;13.20;84.00;;;;;;4984317;28;20496;-64
2023/04/11 07:46:27;;;;;;;7.60;2.47;;;13.40;82.10;;;;;;4990483;28;20490;-64
2023/04/11 07:48:56;;;;;;;13.67;3.00;;;13.60;78.60;;;;;;4980345;28;20488;-63
2023/04/11 07:51:25;;;;;;;10.20;3.00;;;13.80;77.80;;;;;;4958925;28;20607;-64
2023/04/11 07:53:54;;;;;;;6.20;3.67;;;14.00;74.70;;;;;;4987375;28;20481;-62
2023/04/11 07:56:24;;;;;;;9.43;3.00;;;14.10;72.70;;;;;;4977223;28;20459;-63
2023/04/11 07:58:55;;;;;;;8.40;2.53;;;14.20;72.70;;;;;;4984015;28;20486;-63
2023/04/11 08:01:25;;;;;;;11.80;3.37;;;14.30;70.60;;;;;;5001441;28;20483;-65
2023/04/11 08:03:55;;;;;;;9.00;3.50;;;14.40;69.70;;;;;;4985447;28;20568;-64
2023/04/11 08:06:27;;;;;;;9.03;2.97;;;14.40;69.70;;;;;;5001202;28;20445;-65
2023/04/11 08:09:07;;;;;;;5.03;2.70;;;14.40;68.40;;;;;;4986889;28;20488;-64
2023/04/11 08:11:40;;;;;;;7.97;3.10;;;14.50;68.20;;;;;;5001973;28;20461;-64
2023/04/11 08:14:09;;;;;;;6.33;2.90;;;14.50;68.40;;;;;;5003038;28;20503;-64
2023/04/11 08:16:38;;;;;;;9.43;3.50;;;14.60;68.50;;;;;;4985710;28;20457;-66
2023/04/11 08:19:09;;;;;;;8.20;2.80;;;14.40;72.60;;;;;;4982962;28;20240;-65
2023/04/11 08:21:41;;;;;;;5.47;2.43;;;14.20;74.60;;;;;;4980918;28;20487;-65
2023/04/11 08:24:10;;;;;;;7.00;3.13;;;14.00;75.30;;;;;;4968059;28;20526;-67
2023/04/11 08:26:40;;;;;;;8.60;2.47;;;14.00;76.80;;;;;;4981115;28;20882;-65
2023/04/11 08:29:10;;;;;;;8.07;2.97;;;13.90;77.70;;;;;;4984889;28;20488;-66
2023/04/11 08:31:43;;;;;;;4.93;2.57;;;13.80;78.30;;;;;;4985162;28;20442;-65
2023/04/11 08:34:12;;;;;;;5.97;2.13;;;13.80;78.60;;;;;;4982000;28;20527;-66
2023/04/11 08:36:41;;;;;;;5.27;2.03;;;13.80;78.40;;;;;;4980869;28;20451;-67
2023/04/11 08:39:10;;;;;;;9.70;2.40;;;14.00;71.60;;;;;;4999177;28;20492;-66
2023/04/11 08:41:41;;;;;;;5.67;2.40;;;14.10;70.60;;;;;;4997007;28;20447;-65
2023/04/11 08:44:11;;;;;;;7.50;2.30;;;14.30;69.30;;;;;;4987274;28;20488;-65
2023/04/11 08:46:42;;;;;;;6.93;2.33;;;14.30;69.00;;;;;;4981622;28;20436;-66
2023/04/11 08:49:11;;;;;;;6.10;2.07;;;14.30;67.20;;;;;;4982181;28;20486;-64
2023/04/11 08:51:43;;;;;;;6.83;2.27;;;14.30;68.30;;;;;;4987010;28;20443;-64
2023/04/11 08:54:12;;;;;;;9.80;2.00;;;14.30;66.30;;;;;;4978340;28;20462;-66
2023/04/11 08:56:42;;;;;;;5.90;2.30;;;14.30;66.20;;;;;;4977500;28;21000;-65
2023/04/11 08:59:11;;;;;;;6.10;2.33;;;14.30;67.30;;;;;;4984031;28;20477;-65
2023/04/11 09:01:40;;;;;;;9.87;2.17;;;14.30;66.90;;;;;;4969962;28;20489;-65
2023/04/11 09:04:10;;;;;;;7.43;2.13;;;14.30;66.50;;;;;;4992917;28;20475;-66
2023/04/11 09:06:41;;;;;;;11.23;2.57;;;14.20;67.20;;;;;;4965044;28;20513;-72
2023/04/11 09:09:29;;;;;;;16.93;3.60;;;14.10;65.60;;;;;;4983471;28;20978;-71
2023/04/11 09:12:00;;;;;;;6.37;2.77;;;14.10;65.70;;;;;;4983644;28;20544;-65
2023/04/11 09:14:28;;;;;;;11.17;3.47;;;14.10;64.70;;;;;;4981203;28;20481;-64
2023/04/11 09:17:03;;;;;;;5.70;2.80;;;14.00;65.30;;;;;;4980548;28;20449;-67
2023/04/11 09:19:33;;;;;;;6.23;2.47;;;14.00;66.20;;;;;;4981056;28;20489;-66
2023/04/11 09:22:04;;;;;;;7.87;3.17;;;14.00;66.30;;;;;;4982842;28;20448;-66
2023/04/11 09:24:34;;;;;;;11.27;2.53;;;14.00;66.70;;;;;;4973874;28;20477;-67
2023/04/11 09:27:10;;;;;;;8.47;2.23;;;14.00;66.70;;;;;;4980769;28;20463;-66
2023/04/11 09:29:40;;;;;;;12.10;3.03;;;14.00;66.90;;;;;;4982962;28;20466;-65
2023/04/11 09:32:27;;;;;;;10.47;2.60;;;14.10;65.30;;;;;;4984021;28;20445;-65
2023/04/11 09:35:21;;;;;;;8.80;2.53;;;14.10;64.80;;;;;;4983612;28;20473;-65
2023/04/11 09:37:53;;;;;;;8.50;2.70;;;14.10;66.30;;;;;;4982373;28;20486;-66
2023/04/11 09:40:26;;;;;;;4.77;2.00;;;14.00;70.00;;;;;;4982667;28;20474;-65
2023/04/11 09:43:01;;;;;;;9.47;3.10;;;13.90;71.40;;;;;;4974579;28;20840;-67
2023/04/11 09:45:31;;;;;;;8.00;2.70;;;13.80;71.10;;;;;;4975925;28;20453;-65
2023/04/11 09:48:16;;;;;;;10.10;2.50;;;13.80;72.50;;;;;;4981234;28;20791;-65
2023/04/11 09:50:46;;;;;;;8.50;2.10;;;13.80;73.40;;;;;;4981804;28;20465;-65
2023/04/11 09:53:14;;;;;;;5.77;2.00;;;13.70;73.90;;;;;;4982817;28;20483;-67
2023/04/11 09:55:43;;;;;;;5.10;2.43;;;13.70;74.60;;;;;;4983507;28;20480;-66
2023/04/11 09:58:14;;;;;;;6.60;3.10;;;13.70;74.40;;;;;;4984787;28;20449;-68
2023/04/11 10:00:43;;;;;;;6.73;2.43;;;13.70;73.90;;;;;;4984950;28;20472;-67
2023/04/11 10:03:12;;;;;;;7.03;3.50;;;13.80;71.10;;;;;;4975352;28;21277;-68
2023/04/11 10:05:41;;;;;;;4.80;2.47;;;13.90;70.40;;;;;;4977760;28;20464;-67
2023/04/11 10:08:17;;;;;;;8.17;2.83;;;13.90;66.30;;;;;;4982408;28;20449;-68
2023/04/11 10:10:45;;;;;;;6.90;2.57;;;14.00;65.10;;;;;;4979932;28;20590;-67
2023/04/11 10:13:44;;;;;;;7.03;2.80;;;14.00;66.30;;;;;;4984460;28;20473;-73
2023/04/11 10:16:14;;;;;;;7.03;2.43;;;14.00;64.90;;;;;;4984294;28;20575;-74
2023/04/11 10:19:19;;;;;;;11.80;3.20;;;14.00;66.80;;;;;;4973396;28;20479;-73
2023/04/11 10:21:48;;;;;;;7.90;3.07;;;14.00;67.60;;;;;;4976937;28;20463;-72
2023/04/11 10:24:17;;;;;;;7.03;2.50;;;14.00;66.60;;;;;;4986375;28;20856;-72
2023/04/11 10:26:47;;;;;;;10.20;3.53;;;14.00;66.00;;;;;;4984660;28;20490;-65
2023/04/11 10:29:52;;;;;;;8.70;3.90;;;14.10;62.80;;;;;;4984502;28;20844;-65
2023/04/11 10:32:22;;;;;;;8.70;2.60;;;14.10;63.80;;;;;;4996356;28;20465;-65
2023/04/11 10:35:21;;;;;;;9.40;2.57;;;14.10;62.70;;;;;;4986275;28;20971;-66
2023/04/11 10:37:50;;;;;;;5.90;2.40;;;14.10;58.30;;;;;;4978105;28;20814;-66
2023/04/11 10:40:20;;;;;;;7.03;2.77;;;14.10;61.70;;;;;;4978669;28;20971;-66
2023/04/11 10:42:49;;;;;;;10.57;2.40;;;14.10;60.90;;;;;;4984741;28;20463;-66
2023/04/11 10:45:24;;;;;;;6.43;2.20;;;14.10;61.50;;;;;;4985324;28;20816;-65
2023/04/11 10:48:10;;;;;;;5.70;2.50;;;14.10;61.20;;;;;;5000060;28;20884;-72
2023/04/11 10:50:44;;;;;;;7.97;2.30;;;14.00;58.20;;;;;;4977282;28;20476;-73
2023/04/11 10:53:35;;;;;;;9.23;2.43;;;13.90;60.90;;;;;;4986776;28;20463;-73
2023/04/11 10:56:04;;;;;;;6.23;2.30;;;13.90;59.60;;;;;;4988715;28;20503;-71
2023/04/11 10:58:38;;;;;;;9.17;2.43;;;13.90;59.40;;;;;;4981692;28;20475;-72
2023/04/11 11:01:26;;;;;;;12.70;3.20;;;13.90;58.80;;;;;;4983810;28;20458;-73
2023/04/11 11:04:11;;;;;;;10.87;2.67;;;14.00;60.50;;;;;;4979076;28;20484;-73
2023/04/11 11:06:41;;;;;;;5.60;2.43;;;14.00;61.00;;;;;;4981185;28;20426;-73
2023/04/11 11:09:23;;;;;;;7.33;2.53;;;14.10;61.20;;;;;;4984615;28;20520;-72
2023/04/11 11:12:08;;;;;;;7.57;2.73;;;14.10;60.10;;;;;;4984501;28;20740;-73
2023/04/11 11:14:38;;;;;;;8.93;2.70;;;14.10;59.40;;;;;;4980028;28;20486;-72
2023/04/11 11:17:08;;;;;;;8.53;2.90;;;14.10;63.60;;;;;;5001298;28;20558;-72
2023/04/11 11:19:37;;;;;;;10.37;3.50;;;14.10;63.70;;;;;;4985454;28;20520;-72
2023/04/11 11:22:15;;;;;;;12.50;2.80;;;14.10;65.40;;;;;;4986108;28;20444;-72
2023/04/11 11:24:43;;;;;;;7.37;2.20;;;14.00;66.40;;;;;;4984652;28;20465;-71
2023/04/11 11:27:19;;;;;;;7.30;2.13;;;14.00;67.50;;;;;;4982834;28;20469;-72
2023/04/11 11:29:48;;;;;;;6.17;2.03;;;14.00;68.30;;;;;;5001041;28;20863;-72
2023/04/11 11:32:23;;;;;;;9.50;2.73;;;14.00;68.20;;;;;;4980408;28;20976;-73
2023/04/11 11:34:52;;;;;;;9.70;2.57;;;13.90;68.70;;;;;;4987132;28;20452;-72
2023/04/11 11:37:21;;;;;;;5.50;1.80;;;14.00;69.20;;;;;;4984758;28;20489;-72
2023/04/11 11:39:51;;;;;;;8.43;2.30;;;14.00;63.80;;;;;;4982226;28;20999;-72
2023/04/11 11:42:20;;;;;;;7.27;2.17;;;14.10;63.80;;;;;;4983738;28;20451;-73
2023/04/11 11:44:49;;;;;;;7.10;2.10;;;14.10;63.10;;;;;;4980950;28;20441;-73
2023/04/11 11:47:24;;;;;;;4.10;1.77;;;14.20;61.00;;;;;;4983769;28;20454;-72
2023/04/11 11:49:54;;;;;;;4.20;1.90;;;14.20;60.20;;;;;;4977045;28;20464;-73
2023/04/11 11:52:33;;;;;;;7.83;2.07;;;14.20;59.10;;;;;;4983631;28;20457;-72
2023/04/11 11:55:04;;;;;;;5.50;2.47;;;14.20;59.00;;;;;;5000460;28;20468;-72
2023/04/11 11:57:36;;;;;;;6.80;1.80;;;14.30;57.40;;;;;;4980033;28;20469;-73
2023/04/11 12:00:08;;;;;;;8.63;1.87;;;14.30;58.50;;;;;;4982693;28;20468;-72
2023/04/11 12:02:40;;;;;;;7.20;1.60;;;14.30;57.30;;;;;;4986883;28;20477;-72
2023/04/11 12:05:11;;;;;;;4.23;1.90;;;14.30;58.50;;;;;;4985521;28;20484;-73
2023/04/11 12:07:40;;;;;;;7.00;2.13;;;14.30;58.50;;;;;;4980519;28;20443;-72
2023/04/11 12:10:14;;;;;;;7.20;1.90;;;14.30;56.20;;;;;;4994464;28;20469;-72
2023/04/11 12:12:48;;;;;;;3.37;1.73;;;14.30;57.90;;;;;;4963663;28;20481;-72
2023/04/11 12:15:23;;;;;;;3.40;1.90;;;14.30;58.50;;;;;;4984557;28;20910;-73
2023/04/11 12:17:54;;;;;;;5.17;2.10;;;14.30;57.70;;;;;;4986813;28;21017;-72
2023/04/11 12:20:25;;;;;;;6.13;2.30;;;14.30;58.50;;;;;;4986015;28;20472;-73
2023/04/11 12:22:54;;;;;;;8.07;1.90;;;14.30;56.80;;;;;;4977696;28;20480;-73
2023/04/11 12:25:24;;;;;;;8.10;2.60;;;14.30;58.50;;;;;;4980864;28;20445;-73
2023/04/11 12:27:55;;;;;;;6.23;2.00;;;14.30;57.00;;;;;;4982434;28;20448;-72
2023/04/11 12:30:24;;;;;;;6.00;1.90;;;14.30;57.70;;;;;;4987402;28;20464;-73
2023/04/11 12:32:57;;;;;;;6.53;2.30;;;14.30;57.80;;;;;;4982283;28;20483;-72
2023/04/11 12:35:26;;;;;;;11.17;2.57;;;14.40;55.90;;;;;;5000412;28;20443;-72
2023/04/11 12:37:55;;;;;;;4.20;2.30;;;14.40;56.60;;;;;;4986755;28;20485;-71
2023/04/11 12:40:25;;;;;;;15.80;3.73;;;14.40;56.70;;;;;;4987858;28;20457;-67
2023/04/11 12:42:53;;;;;;;9.77;2.20;;;14.40;59.10;;;;;;4980131;28;20985;-67
2023/04/11 12:45:25;;;;;;;5.43;1.93;;;14.40;57.90;;;;;;4980275;28;20834;-66
2023/04/11 12:47:54;;;;;;;13.53;2.97;;;14.40;56.10;;;;;;4981594;28;20536;-65
2023/04/11 12:50:24;;;;;;;5.50;1.93;;;14.40;58.80;;;;;;4988166;28;20461;-67
2023/04/11 12:52:53;;;;;;;7.00;1.97;;;14.40;58.00;;;;;;4979967;28;20478;-68
2023/04/11 12:55:23;;;;;;;7.33;2.00;;;14.40;56.70;;;;;;4987220;28;20439;-66
2023/04/11 12:57:52;;;;;;;7.90;1.43;;;14.40;56.40;;;;;;4980660;28;20469;-65
2023/04/11 13:00:21;;;;;;;6.70;1.77;;;14.40;56.30;;;;;;4985522;28;20842;-65
2023/04/11 13:02:50;;;;;;;4.90;1.60;;;14.40;56.00;;;;;;4986817;28;20841;-65
2023/04/11 13:05:22;;;;;;;8.77;2.40;;;14.40;58.60;;;;;;4983189;28;20440;-65